createdAt,value
2023-01-27T00:02:01.212Z,1.15
2023-01-27T00:05:06.117Z,1.15
2023-01-27T00:08:10.166Z,1.18
2023-01-27T00:11:32.924Z,1.23
2023-01-27T00:14:36.839Z,1.27
2023-01-27T00:17:41.720Z,1.30
2023-01-27T00:21:05.293Z,1.30
2023-01-27T00:24:31.914Z,1.24
2023-01-27T00:27:36.690Z,1.20
2023-01-27T00:30:40.614Z,1.19
2023-01-27T00:33:49.672Z,1.19
2023-01-27T00:36:53.572Z,1.23
2023-01-27T00:39:57.517Z,1.26
2023-01-27T00:43:01.432Z,1.27
2023-01-27T00:46:06.373Z,1.28
2023-01-27T00:49:11.494Z,1.23
2023-01-27T00:52:16.418Z,1.20
2023-01-27T00:55:20.949Z,1.21
2023-01-27T00:58:29.972Z,1.20
2023-01-27T01:01:34.874Z,1.19
2023-01-27T01:04:38.977Z,1.16
2023-01-27T01:07:42.894Z,1.23
2023-01-27T01:10:46.805Z,1.30
2023-01-27T01:13:53.731Z,1.35
2023-01-27T01:16:58.997Z,1.39
2023-01-27T01:20:03.893Z,1.42
2023-01-27T01:23:08.746Z,1.45
2023-01-27T01:26:15.073Z,1.46
2023-01-27T01:29:19.232Z,1.45
2023-01-27T01:32:23.277Z,1.40
2023-01-27T01:35:28.452Z,1.32
2023-01-27T01:38:32.436Z,1.27
2023-01-27T01:41:36.873Z,1.18
2023-01-27T01:44:45.685Z,1.09
2023-01-27T01:47:49.680Z,1.08
2023-01-27T01:51:01.823Z,1.07
2023-01-27T01:54:28.969Z,1.08
2023-01-27T01:57:37.716Z,1.10
2023-01-27T02:00:42.045Z,1.12
2023-01-27T02:03:51.410Z,1.11
2023-01-27T02:07:03.429Z,1.11
2023-01-27T02:10:07.664Z,1.10
2023-01-27T02:13:12.927Z,1.07
2023-01-27T02:16:17.206Z,1.08
2023-01-27T02:19:40.825Z,1.14
2023-01-27T02:23:22.040Z,1.20
2023-01-27T02:26:32.352Z,1.22
2023-01-27T02:29:36.481Z,1.18
2023-01-27T02:32:40.461Z,1.09
2023-01-27T02:35:50.157Z,1.04
2023-01-27T02:38:57.246Z,1.01
2023-01-27T02:42:04.621Z,1.02
2023-01-27T02:45:09.853Z,1.09
2023-01-27T02:48:14.741Z,1.13
2023-01-27T02:51:19.041Z,1.14
2023-01-27T02:54:27.423Z,1.14
2023-01-27T02:57:31.687Z,1.17
2023-01-27T03:00:56.162Z,1.23
2023-01-27T03:04:00.399Z,1.22
2023-01-27T03:07:04.665Z,1.21
2023-01-27T03:10:10.766Z,1.22
2023-01-27T03:13:14.657Z,1.22
2023-01-27T03:16:37.149Z,1.24
2023-01-27T03:19:45.955Z,1.24
2023-01-27T03:22:50.172Z,1.22
2023-01-27T03:25:55.304Z,1.23
2023-01-27T03:29:19.012Z,1.23
2023-01-27T03:32:25.070Z,1.25
2023-01-27T03:35:50.113Z,1.25
2023-01-27T03:39:16.461Z,1.26
2023-01-27T03:42:40.798Z,1.27
2023-01-27T03:46:07.728Z,1.28
2023-01-27T03:49:11.679Z,1.32
2023-01-27T03:52:15.704Z,1.31
2023-01-27T03:55:19.719Z,1.24
2023-01-27T03:58:26.500Z,1.20
2023-01-27T04:01:30.637Z,1.19
2023-01-27T04:04:53.498Z,1.19
2023-01-27T04:07:57.485Z,1.16
2023-01-27T04:11:24.276Z,1.13
2023-01-27T04:14:29.749Z,1.13
2023-01-27T04:17:39.056Z,1.12
2023-01-27T04:20:43.146Z,1.12
2023-01-27T04:23:47.241Z,1.12
2023-01-27T04:26:58.991Z,1.10
2023-01-27T04:30:04.929Z,1.07
2023-01-27T04:33:10.363Z,1.08
2023-01-27T04:36:14.324Z,1.11
2023-01-27T04:39:19.426Z,1.19
2023-01-27T04:42:23.518Z,1.27
2023-01-27T04:45:27.514Z,1.30
2023-01-27T04:48:31.594Z,1.37
2023-01-27T04:51:35.678Z,1.37
2023-01-27T04:54:39.624Z,1.37
2023-01-27T04:57:43.720Z,1.37
2023-01-27T05:00:47.737Z,1.35
2023-01-27T05:03:51.754Z,1.27
2023-01-27T05:06:55.766Z,1.17
2023-01-27T05:09:59.897Z,1.15
2023-01-27T05:13:04.523Z,1.17
2023-01-27T05:16:12.553Z,1.11
2023-01-27T05:19:16.547Z,1.08
2023-01-27T05:22:20.451Z,1.08
2023-01-27T05:25:24.395Z,1.08
2023-01-27T05:28:29.190Z,1.12
2023-01-27T05:31:33.452Z,1.19
2023-01-27T05:34:37.476Z,1.26
2023-01-27T05:37:41.395Z,1.22
2023-01-27T05:40:45.355Z,1.18
2023-01-27T05:43:54.607Z,1.21
2023-01-27T05:46:58.847Z,1.21
2023-01-27T05:50:02.868Z,1.14
2023-01-27T05:53:06.856Z,1.11
2023-01-27T05:56:13.564Z,1.13
2023-01-27T05:59:17.565Z,1.13
2023-01-27T06:02:22.810Z,1.06
2023-01-27T06:05:27.740Z,0.99
2023-01-27T06:08:31.754Z,0.93
2023-01-27T06:11:35.772Z,0.86
2023-01-27T06:14:39.786Z,0.78
2023-01-27T06:17:43.708Z,0.76
2023-01-27T06:20:48.265Z,0.75
2023-01-27T06:23:53.628Z,0.74
2023-01-27T06:26:57.892Z,0.74
2023-01-27T06:30:02.296Z,0.72
2023-01-27T06:33:07.207Z,0.68
2023-01-27T06:36:13.631Z,0.59
2023-01-27T06:39:17.744Z,0.52
2023-01-27T06:42:21.755Z,0.45
2023-01-27T06:45:26.172Z,0.40
2023-01-27T06:48:30.560Z,0.38
2023-01-27T06:51:34.523Z,0.34
2023-01-27T06:54:39.663Z,0.33
2023-01-27T06:57:44.609Z,0.33
2023-01-27T07:00:48.618Z,0.31
2023-01-27T07:03:52.636Z,0.34
2023-01-27T07:06:56.653Z,0.38
2023-01-27T07:10:00.767Z,0.42
2023-01-27T07:13:09.391Z,0.46
2023-01-27T07:16:13.557Z,0.47
2023-01-27T07:19:17.735Z,0.47
2023-01-27T07:22:21.728Z,0.52
2023-01-27T07:25:26.815Z,0.55
2023-01-27T07:28:30.905Z,0.56
2023-01-27T07:31:34.986Z,0.51
2023-01-27T07:34:39.139Z,0.47
2023-01-27T07:37:43.076Z,0.45
2023-01-27T07:40:47.274Z,0.46
2023-01-27T07:43:52.452Z,0.50
2023-01-27T07:46:58.994Z,0.55
2023-01-27T07:50:03.205Z,0.63
2023-01-27T07:53:07.314Z,0.73
2023-01-27T07:56:14.155Z,0.85
2023-01-27T07:59:18.123Z,0.92
2023-01-27T08:02:28.497Z,0.99
2023-01-27T08:05:34.357Z,1.05
2023-01-27T08:08:39.017Z,1.10
2023-01-27T08:11:43.016Z,1.16
2023-01-27T08:14:46.913Z,1.21
2023-01-27T08:17:58.044Z,1.26
2023-01-27T08:21:05.652Z,1.31
2023-01-27T08:24:11.719Z,1.32
2023-01-27T08:27:16.845Z,1.36
2023-01-27T08:30:21.567Z,1.43
2023-01-27T08:33:25.648Z,1.51
2023-01-27T08:36:29.784Z,1.55
2023-01-27T08:39:33.987Z,1.59
2023-01-27T08:42:38.008Z,1.63
2023-01-27T08:45:42.366Z,1.66
2023-01-27T08:48:46.428Z,1.71
2023-01-27T08:51:50.458Z,1.78
2023-01-27T08:54:54.656Z,1.79
2023-01-27T08:57:59.001Z,1.77
2023-01-27T09:01:04.715Z,1.77
2023-01-27T09:04:08.858Z,1.78
2023-01-27T09:07:12.863Z,1.85
2023-01-27T09:10:17.438Z,1.91
2023-01-27T09:13:24.411Z,1.97
2023-01-27T09:16:29.230Z,2.02
2023-01-27T09:19:33.359Z,2.08
2023-01-27T09:22:40.474Z,2.12
2023-01-27T09:25:44.570Z,2.21
2023-01-27T09:28:48.582Z,2.32
2023-01-27T09:31:52.848Z,2.43
2023-01-27T09:34:57.024Z,2.49
2023-01-27T09:38:01.662Z,2.55
2023-01-27T09:41:35.983Z,2.59
2023-01-27T09:44:55.001Z,2.70
2023-01-27T09:48:05.208Z,2.75
2023-01-27T09:51:48.524Z,2.71
2023-01-27T09:55:11.371Z,2.60
2023-01-27T09:58:48.259Z,2.57
2023-01-27T10:02:36.642Z,2.60
2023-01-27T10:06:08.633Z,2.65
2023-01-27T10:09:39.265Z,2.72
2023-01-27T10:13:05.604Z,2.86
2023-01-27T10:16:13.534Z,2.94
2023-01-27T10:19:32.263Z,3.01
2023-01-27T10:23:00.343Z,3.07
2023-01-27T10:26:26.047Z,3.16
2023-01-27T10:30:08.060Z,3.26
2023-01-27T10:33:28.386Z,3.41
2023-01-27T10:36:46.111Z,3.51
2023-01-27T10:40:16.096Z,3.65
2023-01-27T10:43:55.688Z,3.76
2023-01-27T10:47:30.798Z,3.82
2023-01-27T10:50:40.461Z,3.85
2023-01-27T10:53:57.451Z,3.94
2023-01-27T10:57:18.001Z,4.02
2023-01-27T11:01:13.276Z,4.08
2023-01-27T11:04:12.658Z,4.15
2023-01-27T11:07:20.124Z,4.16
2023-01-27T11:10:33.462Z,3.99
2023-01-27T11:13:38.474Z,3.99
2023-01-27T11:16:48.049Z,4.02
2023-01-27T11:20:02.904Z,4.01
2023-01-27T11:23:09.803Z,4.08
2023-01-27T11:26:26.001Z,4.03
2023-01-27T11:29:42.695Z,4.00
2023-01-27T11:33:21.404Z,3.90
2023-01-27T11:36:26.634Z,3.87
2023-01-27T11:39:33.695Z,3.90
2023-01-27T11:42:38.177Z,3.96
2023-01-27T11:45:42.336Z,3.93
2023-01-27T11:48:50.847Z,3.92
2023-01-27T11:52:11.955Z,3.94
2023-01-27T11:55:20.827Z,3.90
2023-01-27T11:58:46.732Z,3.90
2023-01-27T12:02:02.261Z,3.85
2023-01-27T12:05:14.744Z,3.74
2023-01-27T12:08:45.661Z,3.73
2023-01-27T12:12:09.031Z,3.74
2023-01-27T12:15:16.662Z,3.76
2023-01-27T12:18:21.055Z,3.71
2023-01-27T12:21:37.467Z,3.70
2023-01-27T12:24:46.054Z,3.70
2023-01-27T12:27:54.915Z,3.75
2023-01-27T12:31:32.850Z,3.78
2023-01-27T12:34:37.889Z,3.82
2023-01-27T12:37:41.891Z,3.89
2023-01-27T12:40:48.665Z,3.94
2023-01-27T12:44:00.413Z,3.84
2023-01-27T12:47:21.170Z,3.74
2023-01-27T12:50:31.357Z,3.71
2023-01-27T12:53:35.449Z,3.69
2023-01-27T12:56:39.564Z,3.72
2023-01-27T12:59:56.388Z,3.67
2023-01-27T13:03:06.323Z,3.66
2023-01-27T13:06:16.418Z,3.67
2023-01-27T13:09:35.130Z,3.69
2023-01-27T13:12:53.852Z,3.69
2023-01-27T13:16:14.129Z,3.56
2023-01-27T13:19:18.959Z,3.47
2023-01-27T13:22:26.753Z,3.50
2023-01-27T13:25:39.754Z,3.49
2023-01-27T13:28:52.816Z,3.53
2023-01-27T13:32:04.819Z,3.57
2023-01-27T13:35:25.113Z,3.54
2023-01-27T13:38:45.813Z,3.53
2023-01-27T13:42:05.190Z,3.45
2023-01-27T13:45:54.462Z,3.27
2023-01-27T13:49:03.975Z,3.13
2023-01-27T13:52:08.101Z,3.06
2023-01-27T13:55:14.116Z,3.02
2023-01-27T13:58:37.783Z,2.95
2023-01-27T14:01:59.787Z,2.91
2023-01-27T14:05:28.805Z,2.84
2023-01-27T14:08:58.943Z,2.78
2023-01-27T14:12:35.413Z,2.84
2023-01-27T14:15:57.373Z,2.94
2023-01-27T14:19:31.846Z,3.03
2023-01-27T14:22:51.663Z,3.06
2023-01-27T14:26:04.463Z,3.10
2023-01-27T14:29:17.824Z,3.13
2023-01-27T14:33:09.967Z,3.11
2023-01-27T14:36:21.386Z,3.06
2023-01-27T14:39:38.889Z,2.90
2023-01-27T14:42:50.788Z,2.84
2023-01-27T14:46:05.191Z,2.81
2023-01-27T14:49:37.349Z,2.79
2023-01-27T14:52:59.614Z,2.77
2023-01-27T14:56:09.999Z,2.78
2023-01-27T14:59:41.914Z,2.83
2023-01-27T15:03:14.231Z,2.82
2023-01-27T15:06:47.715Z,2.82
2023-01-27T15:10:20.964Z,2.83
2023-01-27T15:13:54.870Z,2.82
2023-01-27T15:17:19.304Z,2.78
2023-01-27T15:20:41.943Z,2.74
2023-01-27T15:24:01.316Z,2.72
2023-01-27T15:27:08.013Z,2.68
2023-01-27T15:30:25.541Z,2.65
2023-01-27T15:34:03.353Z,2.66
2023-01-27T15:37:10.052Z,2.65
2023-01-27T15:40:17.272Z,2.71
2023-01-27T15:43:25.539Z,2.76
2023-01-27T15:46:36.007Z,2.73
2023-01-27T15:49:49.825Z,2.75
2023-01-27T15:53:01.395Z,2.75
2023-01-27T15:56:06.177Z,2.68
2023-01-27T15:59:16.243Z,2.63
2023-01-27T16:02:29.759Z,2.59
2023-01-27T16:05:44.647Z,2.56
2023-01-27T16:08:52.653Z,2.50
2023-01-27T16:12:07.091Z,2.50
2023-01-27T16:15:20.059Z,2.54
2023-01-27T16:18:27.033Z,2.56
2023-01-27T16:21:57.712Z,2.57
2023-01-27T16:25:30.236Z,2.61
2023-01-27T16:28:35.995Z,2.59
2023-01-27T16:31:41.994Z,2.56
2023-01-27T16:34:53.300Z,2.50
2023-01-27T16:38:05.756Z,2.46
2023-01-27T16:41:24.221Z,2.40
2023-01-27T16:44:54.619Z,2.37
2023-01-27T16:48:03.495Z,2.32
2023-01-27T16:51:13.448Z,2.25
2023-01-27T16:54:34.978Z,2.16
2023-01-27T16:57:45.651Z,2.16
2023-01-27T17:00:52.258Z,2.21
2023-01-27T17:04:07.779Z,2.19
2023-01-27T17:07:22.537Z,2.20
2023-01-27T17:10:34.349Z,2.22
2023-01-27T17:13:50.192Z,2.18
2023-01-27T17:17:00.021Z,2.13
2023-01-27T17:20:07.819Z,2.11
2023-01-27T17:23:34.247Z,2.09
2023-01-27T17:26:38.334Z,2.05
2023-01-27T17:29:45.731Z,2.08
2023-01-27T17:32:53.035Z,2.15
2023-01-27T17:36:02.814Z,2.24
2023-01-27T17:39:25.682Z,2.23
2023-01-27T17:42:32.456Z,2.18
2023-01-27T17:45:36.775Z,2.13
2023-01-27T17:48:47.112Z,2.10
2023-01-27T17:51:57.596Z,2.09
2023-01-27T17:55:02.751Z,2.07
2023-01-27T17:58:16.291Z,2.06
2023-01-27T18:01:21.557Z,2.02
2023-01-27T18:04:25.644Z,2.01
2023-01-27T18:07:31.290Z,2.04
2023-01-27T18:10:35.252Z,2.08
2023-01-27T18:13:40.941Z,2.10
2023-01-27T18:16:44.996Z,2.08
2023-01-27T18:19:51.793Z,2.11
2023-01-27T18:22:57.313Z,2.12
2023-01-27T18:26:21.622Z,2.08
2023-01-27T18:29:37.433Z,2.08
2023-01-27T18:32:43.765Z,2.04
2023-01-27T18:35:59.978Z,1.98
2023-01-27T18:39:24.801Z,1.95
2023-01-27T18:42:31.152Z,1.90
2023-01-27T18:45:35.120Z,1.93
2023-01-27T18:48:40.152Z,2.00
2023-01-27T18:51:44.325Z,2.07
2023-01-27T18:54:48.445Z,2.14
2023-01-27T18:57:55.741Z,2.15
2023-01-27T19:01:01.191Z,2.12
2023-01-27T19:04:11.619Z,2.09
2023-01-27T19:07:18.234Z,2.08
2023-01-27T19:10:28.572Z,2.04
2023-01-27T19:13:32.515Z,1.97
2023-01-27T19:16:37.330Z,1.93
2023-01-27T19:19:41.445Z,1.93
2023-01-27T19:22:46.969Z,1.93
2023-01-27T19:25:53.797Z,1.91
2023-01-27T19:28:58.371Z,1.95
2023-01-27T19:32:02.375Z,2.02
2023-01-27T19:35:08.414Z,2.06
2023-01-27T19:38:12.701Z,2.10
2023-01-27T19:41:16.737Z,2.13
2023-01-27T19:44:21.375Z,2.16
2023-01-27T19:47:25.262Z,2.16
2023-01-27T19:50:30.505Z,2.16
2023-01-27T19:53:34.415Z,2.14
2023-01-27T19:56:38.832Z,2.12
2023-01-27T19:59:42.759Z,2.11
2023-01-27T20:02:46.899Z,2.13
2023-01-27T20:05:51.021Z,2.15
2023-01-27T20:08:57.465Z,2.16
2023-01-27T20:12:01.501Z,2.19
2023-01-27T20:15:06.302Z,2.21
2023-01-27T20:18:15.667Z,2.19
2023-01-27T20:21:25.256Z,2.11
2023-01-27T20:24:29.395Z,2.08
2023-01-27T20:27:34.050Z,2.09
2023-01-27T20:30:38.874Z,2.08
2023-01-27T20:33:42.925Z,2.10
2023-01-27T20:36:46.825Z,2.10
2023-01-27T20:39:50.799Z,2.08
2023-01-27T20:42:55.176Z,2.03
2023-01-27T20:46:10.808Z,1.99
2023-01-27T20:49:14.822Z,1.99
2023-01-27T20:52:18.783Z,2.04
2023-01-27T20:55:23.014Z,2.09
2023-01-27T20:58:27.914Z,2.16
2023-01-27T21:01:33.364Z,2.17
2023-01-27T21:04:37.399Z,2.15
2023-01-27T21:07:41.754Z,2.13
2023-01-27T21:10:45.765Z,2.10
2023-01-27T21:13:51.930Z,2.05
2023-01-27T21:16:55.982Z,1.99
2023-01-27T21:19:59.955Z,1.96
2023-01-27T21:23:03.970Z,1.94
2023-01-27T21:26:11.808Z,1.95
2023-01-27T21:29:15.690Z,1.99
2023-01-27T21:32:19.718Z,2.05
2023-01-27T21:35:23.714Z,2.07
2023-01-27T21:38:27.838Z,2.07
2023-01-27T21:41:51.615Z,2.05
2023-01-27T21:45:15.442Z,2.00
2023-01-27T21:48:19.718Z,2.01
2023-01-27T21:51:23.739Z,1.98
2023-01-27T21:54:28.695Z,1.95
2023-01-27T21:57:32.666Z,1.90
2023-01-27T22:00:36.685Z,1.83
2023-01-27T22:03:40.854Z,1.85
2023-01-27T22:06:44.925Z,1.88
2023-01-27T22:09:48.941Z,1.91
2023-01-27T22:12:57.735Z,1.94
2023-01-27T22:16:02.611Z,2.02
2023-01-27T22:19:06.747Z,2.02
2023-01-27T22:22:13.192Z,1.97
2023-01-27T22:25:17.812Z,1.97
2023-01-27T22:28:24.114Z,1.99
2023-01-27T22:31:28.128Z,2.01
2023-01-27T22:34:32.346Z,2.01
2023-01-27T22:37:37.836Z,1.92
2023-01-27T22:40:41.920Z,1.92
2023-01-27T22:43:50.100Z,1.98
2023-01-27T22:46:54.073Z,2.05
2023-01-27T22:49:58.060Z,2.11
2023-01-27T22:53:02.075Z,2.12
2023-01-27T22:56:07.115Z,2.04
2023-01-27T22:59:13.288Z,1.99
2023-01-27T23:02:17.215Z,1.98
2023-01-27T23:05:21.438Z,1.96
2023-01-27T23:08:25.406Z,1.96
2023-01-27T23:11:29.331Z,1.91
2023-01-27T23:14:33.246Z,1.92
2023-01-27T23:17:37.376Z,1.97
2023-01-27T23:20:42.580Z,2.01
2023-01-27T23:23:46.576Z,2.09
2023-01-27T23:26:50.764Z,2.11
2023-01-27T23:29:55.369Z,2.09
2023-01-27T23:32:59.295Z,2.11
2023-01-27T23:36:03.631Z,2.11
2023-01-27T23:39:13.531Z,2.08
2023-01-27T23:42:18.311Z,2.01
2023-01-27T23:45:22.205Z,1.98
2023-01-27T23:48:28.005Z,1.99
2023-01-27T23:51:32.048Z,1.97
2023-01-27T23:54:35.994Z,1.94
2023-01-27T23:57:40.228Z,1.96
